Marenisco, MI (49947)

3:04 PM CDT on June 25, 2017 (GMT -0500)
KC9AMX STATELINE LAKE | | Change Station
Active Advisory: Special Statement

Elev 1663 ft 46.26 °N, 89.72 °W | Updated 0 second ago

Thunderstorm
Thunderstorm
53.9 °F
Feels Like 53.9 °F
N
0.0
Wind Variable Wind from NNW
Gusts 0.0 mph

Today
High -- | Low -- °F
--% Chance of Precip.
Yesterday
High -- | Low -- °F
Precip. -- in
Pressure 30.02 in
Visibility 10.0 miles
Clouds Scattered Clouds 1300 ft
Mostly Cloudy 3600 ft
Overcast 4400 ft
Dew Point 51 °F
Humidity 89%
Rainfall 0.07 in
Snow Depth Not available.
5:07 AM 8:55 PM
Waxing Crescent, 4% visible
METAR KD25 251955Z AUTO 28010KT 10SM -TSRA SCT013 BKN036 OVC044 12/12 A3002 RMK AO2 LTG DSNT NE AND NW P0001 T01160116
Pressure 30.02 in
Visibility 10.0 miles
Clouds Scattered Clouds 1300 ft
Mostly Cloudy 3600 ft
Overcast 4400 ft
Dew Point 51 °F
Humidity 89%
Rainfall 0.07 in
Snow Depth Not available.
5:07 AM 8:55 PM
Waxing Crescent, 4% visible
METAR KD25 251955Z AUTO 28010KT 10SM -TSRA SCT013 BKN036 OVC044 12/12 A3002 RMK AO2 LTG DSNT NE AND NW P0001 T01160116

Get Your Daily Forecast Email!

Thanks for signing up!

Be on the lookout for a verification email in your inbox.

You'll start receiving severe weather alerts in your inbox..

×

10-Day Weather Forecast

Almanac

Astronomy

Jun. 25, 2017 Rise Set
Actual Time
Civil Twilight
Nautical Twilight
Astronomical Twilight
Moon
Length of Visible Light
Length of Day
Tomorrow will be .
, % of the Moon is Illuminated

Today's Extremes

State Highs State Lows

Community

WunderPhotos

Category 6

Welcome to Category 6. This is the collective home for Weather Underground's featured writeups by Dr. Jeff Masters (right), Bob Henson (left), Chris Burt, and other regular contributors.

Nearby

Air Quality

  Air Quality AQ Index Pollutant
Not available.

Snow Depth

Station Depth Elevation

Earthquake Activity

City Distance Mag. Time & Date
Minimum magnitude displayed is 2.5.

Coastal Water Temperatures

Place Temperature

Stations

Nearby Weather Stations

Station Location Temp. Windchill Dew Point Humidity Wind Precip. Elev Updated Type
                   

Watches & Warnings

Special Statement
Issued: 1:04 PM CDT Jun. 25, 2017 – National Weather Service

... Small hail and heavy downpours expected into this evening...

Showers and thunderstorms developing across central and western
portions of the Upper Peninsula this afternoon into early this
evening will have the potential to produce small hail and very
heavy downpours.

The heavy downpours, falling on saturated soils from the rain
that fell Saturday afternoon and Saturday night, may lead to
minor localized flooding and ponding of water on highways through
this evening.


Kec